Time;durP1;ratioP1;P1;durP2;ratioP2;P2;SDS_P1;SDS_P2;PMS_P1;PMS_P2;Temp;Humidity;BMP_temperature;BMP_pressure;BME280_temperature;BME280_humidity;BME280_pressure;Samples;Min_cycle;Max_cycle;Signal;HPM_P1;HPM_P2
2023/03/21 00:09:25;;;;;;;2.20;1.50;;;;;;;23.02;26.88;102369.63;21069921;28;20028;-71
2023/03/21 00:19:31;;;;;;;6.63;1.60;;;;;;;23.08;26.69;102402.94;21084718;28;20047;-71
2023/03/21 00:29:32;;;;;;;2.60;1.25;;;;;;;23.11;26.92;102412.75;21084145;28;20048;-71
2023/03/21 00:39:35;;;;;;;1.88;1.00;;;;;;;23.05;26.68;102419.38;21053758;28;20024;-71
2023/03/21 00:49:37;;;;;;;3.20;1.17;;;;;;;22.99;26.78;102415.66;21080562;28;20483;-71
2023/03/21 00:59:40;;;;;;;6.43;1.70;;;;;;;23.08;29.01;102433.66;21079965;28;20372;-70
2023/03/21 01:09:41;;;;;;;20.35;2.88;;;;;;;23.18;35.07;102463.63;21065909;28;20036;-71
2023/03/21 01:19:45;;;;;;;13.63;2.10;;;;;;;23.24;33.62;102468.22;21077675;28;20036;-71
2023/03/21 01:29:46;;;;;;;9.80;2.30;;;;;;;23.26;32.54;102465.16;21064906;28;20048;-71
2023/03/21 01:39:47;;;;;;;6.95;1.92;;;;;;;23.31;31.43;102480.00;21075592;28;20436;-69
2023/03/21 01:49:51;;;;;;;6.18;1.88;;;;;;;23.33;31.30;102476.97;21078309;28;20035;-70
2023/03/21 01:59:54;;;;;;;38.50;18.25;;;;;;;23.26;30.72;102465.16;21058276;28;20044;-71
2023/03/21 02:09:57;;;;;;;138.18;63.35;;;;;;;23.21;30.55;102484.63;21072453;28;20109;-71
2023/03/21 02:20:07;;;;;;;151.18;74.22;;;;;;;23.23;30.36;102491.66;21071783;28;20044;-70
2023/03/21 02:30:16;;;;;;;162.57;78.55;;;;;;;23.21;30.26;102485.47;21071446;28;20445;-70
2023/03/21 02:40:42;;;;;;;165.77;73.72;;;;;;;23.11;30.37;102485.34;21070288;28;20044;-69
2023/03/21 02:50:52;;;;;;;151.52;72.75;;;;;;;23.11;30.51;102490.94;21074338;28;20070;-71
2023/03/21 03:00:55;;;;;;;142.00;65.15;;;;;;;23.12;30.22;102497.34;21069261;28;20422;-73
2023/03/21 03:10:58;;;;;;;132.30;60.72;;;;;;;23.17;30.31;102517.81;21068792;28;20040;-71
2023/03/21 03:21:09;;;;;;;119.70;58.63;;;;;;;23.17;30.27;102515.03;21074698;28;20105;-72
2023/03/21 03:31:15;;;;;;;105.78;51.95;;;;;;;23.09;30.11;102512.66;21074145;28;20062;-71
2023/03/21 03:41:23;;;;;;;103.35;49.75;;;;;;;23.11;29.87;102518.00;21062801;28;20560;-71
2023/03/21 03:51:35;;;;;;;84.87;42.37;;;;;;;23.09;30.25;102515.47;21057052;28;20070;-71
2023/03/21 04:01:40;;;;;;;73.80;39.15;;;;;;;23.01;30.38;102505.59;21081426;28;20036;-69
2023/03/21 04:11:41;;;;;;;76.03;38.42;;;;;;;23.10;30.38;102522.75;21078322;28;20450;-71
2023/03/21 04:21:43;;;;;;;64.65;33.20;;;;;;;23.03;29.90;102511.75;21082565;28;20032;-70
2023/03/21 04:31:44;;;;;;;60.10;31.98;;;;;;;23.09;29.60;102526.63;21081009;28;20376;-70
2023/03/21 04:41:46;;;;;;;53.53;26.90;;;;;;;23.07;30.22;102540.03;21081648;28;20036;-71
2023/03/21 04:51:48;;;;;;;52.85;24.50;;;;;;;23.03;30.99;102547.22;21076671;28;20043;-72
2023/03/21 05:01:50;;;;;;;42.38;22.92;;;;;;;23.02;30.89;102538.00;21079088;28;20511;-69
2023/03/21 05:11:51;;;;;;;47.42;22.90;;;;;;;23.04;30.86;102543.31;21061393;28;20036;-71
2023/03/21 05:21:53;;;;;;;36.20;20.00;;;;;;;23.03;30.43;102561.19;21077967;28;20055;-70
2023/03/21 05:31:59;;;;;;;35.30;18.17;;;;;;;23.01;30.14;102560.59;21054179;28;20091;-70
2023/03/21 05:42:00;;;;;;;30.88;17.30;;;;;;;22.79;30.42;102536.22;21077817;28;20036;-71
2023/03/21 05:52:14;;;;;;;34.92;16.23;;;;;;;22.98;29.90;102581.47;21073896;28;20044;-71
2023/03/21 06:02:15;;;;;;;26.65;14.15;;;;;;;22.92;29.88;102576.09;21075938;28;20480;-72
2023/03/21 06:12:16;;;;;;;22.55;12.90;;;;;;;22.69;29.38;102558.41;21074490;28;20060;-71
2023/03/21 06:22:18;;;;;;;20.48;10.38;;;;;;;22.76;29.48;102573.00;21074949;28;20040;-71
2023/03/21 06:32:19;;;;;;;17.35;9.50;;;;;;;22.92;29.15;102570.50;21074765;28;20035;-72
2023/03/21 06:42:23;;;;;;;14.90;8.50;;;;;;;22.86;29.04;102560.31;21075876;28;20040;-72
2023/03/21 06:52:25;;;;;;;15.80;8.23;;;;;;;22.96;28.55;102582.84;21073334;28;20047;-72
2023/03/21 07:02:26;;;;;;;14.65;7.85;;;;;;;22.74;28.68;102564.06;21056272;28;20450;-72
2023/03/21 07:12:27;;;;;;;13.95;7.13;;;;;;;22.78;28.26;102593.16;21064616;28;20043;-71
2023/03/21 07:22:29;;;;;;;13.00;7.43;;;;;;;22.87;28.43;102595.53;21085392;28;20040;-71
2023/03/21 07:32:36;;;;;;;12.73;6.90;;;;;;;22.83;28.22;102606.34;21091827;28;20051;-71
2023/03/21 07:42:39;;;;;;;12.18;6.20;;;;;;;22.81;28.17;102603.78;21089444;28;20024;-71
2023/03/21 07:52:43;;;;;;;8.77;5.32;;;;;;;22.76;28.03;102600.91;21085769;28;20052;-70
2023/03/21 08:02:45;;;;;;;9.23;5.60;;;;;;;22.78;28.19;102600.69;21085231;28;20048;-70
2023/03/21 08:12:46;;;;;;;8.02;4.97;;;;;;;22.55;28.46;102582.16;21083261;28;20044;-70
2023/03/21 08:22:49;;;;;;;7.25;4.82;;;;;;;22.74;28.02;102636.63;21083477;28;20036;-70
2023/03/21 08:32:56;;;;;;;8.07;4.60;;;;;;;22.75;28.25;102638.31;21082751;28;20040;-71
2023/03/21 08:42:58;;;;;;;6.38;4.40;;;;;;;22.73;28.21;102634.94;21084252;28;20036;-70
2023/03/21 08:52:59;;;;;;;6.60;4.00;;;;;;;22.73;28.30;102640.50;21082648;28;20047;-71
2023/03/21 09:03:00;;;;;;;6.30;4.22;;;;;;;22.71;28.06;102641.84;21082234;28;20093;-71
2023/03/21 09:13:07;;;;;;;5.97;3.88;;;;;;;22.69;27.93;102650.47;21081952;28;20517;-70
2023/03/21 09:23:10;;;;;;;5.25;3.60;;;;;;;22.69;28.30;102661.66;21080607;28;20479;-71
2023/03/21 09:33:19;;;;;;;5.07;3.15;;;;;;;22.64;28.12;102653.19;21080629;28;20040;-71
2023/03/21 09:43:38;;;;;;;5.03;3.50;;;;;;;22.58;27.88;102660.59;21078618;28;20035;-70
2023/03/21 09:53:42;;;;;;;4.50;3.20;;;;;;;22.68;27.97;102664.66;21091436;28;20039;-70
2023/03/21 10:03:47;;;;;;;4.65;2.97;;;;;;;22.64;28.31;102653.19;21076449;28;20032;-71
2023/03/21 10:14:03;;;;;;;4.30;3.03;;;;;;;22.65;28.14;102666.03;21077487;28;20497;-71
2023/03/21 10:24:05;;;;;;;5.45;2.78;;;;;;;22.65;28.06;102688.34;21075287;28;20044;-70
2023/03/21 10:34:17;;;;;;;4.25;2.83;;;;;;;22.50;27.90;102679.72;21075891;28;20052;-71
2023/03/21 10:44:20;;;;;;;3.90;2.63;;;;;;;22.41;28.11;102692.38;21075988;28;20036;-70
2023/03/21 10:54:34;;;;;;;5.50;2.45;;;;;;;22.55;27.66;102732.81;21069157;28;20057;-71
2023/03/21 11:04:37;;;;;;;4.38;2.67;;;;;;;22.62;27.96;102761.41;21091909;28;20040;-70
2023/03/21 11:14:40;;;;;;;4.20;2.70;;;;;;;22.61;27.86;102781.19;21088428;28;20040;-72
2023/03/21 11:24:50;;;;;;;4.40;2.70;;;;;;;22.40;27.99;102758.44;21090855;28;20028;-71
2023/03/21 11:34:58;;;;;;;3.42;2.55;;;;;;;22.44;27.88;102781.13;21090511;28;20047;-71
2023/03/21 11:45:13;;;;;;;3.67;2.47;;;;;;;22.46;27.43;102801.25;21079620;28;20024;-71
2023/03/21 11:55:27;;;;;;;3.80;2.33;;;;;;;22.42;27.79;102789.72;21087637;28;20048;-72
2023/03/21 12:05:35;;;;;;;2.42;2.17;;;;;;;22.59;27.73;102806.56;21086075;28;20036;-71
2023/03/21 12:15:54;;;;;;;;;;;;;;;22.69;28.35;102817.91;21073155;28;20044;-71
2023/03/21 12:26:17;;;;;;;7.13;2.85;;;;;;;22.77;29.25;102825.03;21047137;28;19957;-70
2023/03/21 12:36:36;;;;;;;14.07;3.63;;;;;;;22.73;30.18;102807.97;21085683;28;20044;-70
2023/03/21 12:46:59;;;;;;;8.70;2.80;;;;;;;22.86;29.38;102817.13;21084423;28;20043;-71
2023/03/21 12:57:06;;;;;;;7.75;2.88;;;;;;;23.00;29.70;102825.00;21079678;28;20492;-71
2023/03/21 13:07:11;;;;;;;9.50;2.78;;;;;;;23.06;29.19;102825.94;21080503;28;20101;-71
2023/03/21 13:17:29;;;;;;;4.28;2.63;;;;;;;23.08;29.52;102841.31;21080626;28;20055;-71
2023/03/21 13:27:33;;;;;;;3.88;2.78;;;;;;;23.16;29.10;102833.66;21080481;28;20185;-71
2023/03/21 13:37:42;;;;;;;4.03;2.72;;;;;;;23.10;29.28;102829.94;21079379;28;20047;-71
2023/03/21 13:47:59;;;;;;;6.68;2.90;;;;;;;23.20;29.38;102858.03;21151137;27;20736;-70
2023/03/21 13:58:49;;;;;;;5.82;2.90;;;;;;;23.16;29.48;102873.59;21150262;28;20056;-72
2023/03/21 14:08:52;;;;;;;12.50;3.07;;;;;;;23.26;30.82;102882.16;21148976;28;20055;-66
2023/03/21 14:18:58;;;;;;;8.48;3.10;;;;;;;23.28;30.90;102876.34;21148167;28;20480;-67
2023/03/21 14:29:03;;;;;;;6.55;2.47;;;;;;;23.37;30.93;102896.31;21147669;28;20043;-67
2023/03/21 14:39:26;;;;;;;14.15;3.78;;;;;;;23.29;31.11;102869.66;21114467;28;20048;-68
2023/03/21 14:49:30;;;;;;;6.50;2.80;;;;;;;23.42;31.28;102888.06;21061044;28;20032;-69
2023/03/21 14:59:35;;;;;;;8.02;3.03;;;;;;;23.48;30.69;102892.63;21004807;28;20044;-72
2023/03/21 15:09:40;;;;;;;6.75;2.70;;;;;;;23.51;29.77;102892.13;21004792;28;20040;-73
2023/03/21 15:19:42;;;;;;;4.45;2.80;;;;;;;23.53;30.21;102873.16;21003661;28;20040;-74
2023/03/21 15:29:45;;;;;;;5.20;2.90;;;;;;;23.10;29.87;102821.53;21002915;28;20040;-73
2023/03/21 15:39:53;;;;;;;5.25;2.83;;;;;;;23.50;30.33;102871.72;21001398;28;20048;-72
2023/03/21 15:49:54;;;;;;;3.70;2.60;;;;;;;23.47;30.12;102863.84;21001383;28;20037;-72
2023/03/21 16:00:13;;;;;;;3.33;2.30;;;;;;;23.42;29.57;102860.13;21000411;28;20040;-72
2023/03/21 16:10:31;;;;;;;3.22;2.47;;;;;;;23.33;29.40;102868.06;20998846;28;20029;-72
2023/03/21 16:20:41;;;;;;;2.75;2.53;;;;;;;23.30;29.79;102865.75;20998511;28;20048;-73
2023/03/21 16:30:43;;;;;;;4.55;2.63;;;;;;;23.28;29.42;102842.81;20997911;28;20048;-73
2023/03/21 16:40:45;;;;;;;4.85;2.38;;;;;;;23.25;29.12;102832.16;20996237;28;20488;-73
2023/03/21 16:50:47;;;;;;;3.97;2.28;;;;;;;23.23;28.88;102834.31;20996269;28;20041;-73
2023/03/21 17:00:48;;;;;;;2.72;2.45;;;;;;;23.12;29.10;102824.06;20995779;28;20032;-73
2023/03/21 17:10:49;;;;;;;2.63;2.13;;;;;;;22.91;28.93;102769.78;20995035;28;20357;-73
2023/03/21 17:20:51;;;;;;;2.47;2.08;;;;;;;23.17;29.24;102808.25;20994269;28;20048;-73
2023/03/21 17:30:55;;;;;;;3.42;1.83;;;;;;;23.12;29.50;102793.34;20993634;28;20040;-74
2023/03/21 17:40:59;;;;;;;2.30;1.73;;;;;;;22.89;29.11;102753.28;20993258;28;20500;-73
2023/03/21 17:51:00;;;;;;;2.22;1.88;;;;;;;22.96;29.33;102755.94;20993790;28;20048;-73
2023/03/21 18:01:02;;;;;;;2.53;2.00;;;;;;;22.71;29.76;102701.28;20993060;28;20032;-72
2023/03/21 18:11:03;;;;;;;2.45;1.90;;;;;;;23.09;30.02;102766.78;20992651;28;20029;-72
2023/03/21 18:21:05;;;;;;;2.25;1.90;;;;;;;22.91;29.77;102719.53;20992262;28;20100;-73
2023/03/21 18:31:08;;;;;;;3.22;1.75;;;;;;;22.98;30.42;102731.41;21001647;28;20029;-73
2023/03/21 18:41:13;;;;;;;2.67;1.98;;;;;;;22.96;30.04;102714.06;21006181;28;20454;-73
2023/03/21 18:51:18;;;;;;;2.10;1.90;;;;;;;23.00;29.37;102709.66;21005826;28;20045;-73
2023/03/21 19:01:19;;;;;;;2.28;1.80;;;;;;;22.98;28.93;102709.91;21004388;28;20044;-73
2023/03/21 19:11:22;;;;;;;2.90;1.60;;;;;;;23.01;29.44;102700.19;21004500;28;20112;-73
2023/03/21 19:21:24;;;;;;;2.22;1.52;;;;;;;22.98;29.06;102692.31;21003914;28;20036;-72
2023/03/21 19:31:25;;;;;;;1.98;1.60;;;;;;;22.97;29.40;102690.63;21002490;28;20066;-74
2023/03/21 19:41:27;;;;;;;2.47;1.58;;;;;;;22.97;29.30;102677.50;21001838;28;20040;-73
2023/03/21 19:51:29;;;;;;;2.20;2.00;;;;;;;22.92;29.34;102671.84;21042468;28;20028;-72
2023/03/21 20:01:33;;;;;;;2.35;1.88;;;;;;;22.62;29.56;102619.09;21052335;28;20036;-73
2023/03/21 20:11:34;;;;;;;2.28;1.77;;;;;;;22.95;30.61;102668.53;21085278;28;20102;-72
2023/03/21 20:21:36;;;;;;;2.83;2.20;;;;;;;22.82;30.71;102638.16;21076090;28;20028;-73
2023/03/21 20:31:38;;;;;;;2.60;1.67;;;;;;;22.94;30.47;102649.25;21081452;28;20040;-73
2023/03/21 20:41:39;;;;;;;1.90;1.70;;;;;;;22.72;30.41;102610.88;21080357;28;20048;-72
2023/03/21 20:51:42;;;;;;;1.70;1.60;;;;;;;22.52;29.90;102588.22;21076788;28;20073;-72
2023/03/21 21:01:44;;;;;;;1.77;1.67;;;;;;;22.85;29.62;102637.63;21075720;28;20113;-72
2023/03/21 21:11:47;;;;;;;2.63;1.92;;;;;;;22.84;30.19;102636.78;21072167;28;20048;-69
2023/03/21 21:21:49;;;;;;;1.98;1.52;;;;;;;22.92;29.96;102637.50;21078393;28;20040;-69
2023/03/21 21:31:50;;;;;;;4.22;1.55;;;;;;;22.90;30.39;102634.94;21077718;28;20036;-70
2023/03/21 21:41:52;;;;;;;1.65;1.55;;;;;;;22.90;30.43;102626.56;21077385;28;20044;-68
2023/03/21 21:51:55;;;;;;;2.05;1.30;;;;;;;22.92;29.70;102609.59;21077581;28;20040;-68
2023/03/21 22:01:57;;;;;;;1.73;1.50;;;;;;;22.89;29.53;102587.72;21078905;28;20044;-68
2023/03/21 22:11:58;;;;;;;2.13;1.50;;;;;;;23.14;29.23;102620.81;21072891;28;20074;-68
2023/03/21 22:22:00;;;;;;;2.55;1.70;;;;;;;23.30;29.71;102645.09;21087481;28;20056;-69
2023/03/21 22:32:01;;;;;;;1.80;1.70;;;;;;;23.37;29.43;102661.66;21089066;28;20105;-68
2023/03/21 22:42:03;;;;;;;2.35;1.60;;;;;;;23.34;29.47;102646.25;21089888;28;20453;-71
2023/03/21 22:52:05;;;;;;;7.72;3.50;;;;;;;23.44;29.36;102674.34;21087684;28;20032;-69
2023/03/21 23:02:10;;;;;;;45.50;19.58;;;;;;;23.35;29.12;102653.53;21056287;28;20459;-69
2023/03/21 23:12:13;;;;;;;79.20;29.38;;;;;;;23.53;29.22;102688.72;21075164;28;20479;-69
2023/03/21 23:22:14;;;;;;;102.22;40.47;;;;;;;23.50;29.40;102689.22;21073540;28;20032;-68
2023/03/21 23:32:16;;;;;;;105.82;40.25;;;;;;;23.58;29.94;102708.38;21064041;28;20036;-69
2023/03/21 23:42:17;;;;;;;110.45;40.80;;;;;;;23.63;29.90;102722.41;21082258;28;20376;-69
2023/03/21 23:52:19;;;;;;;127.93;43.55;;;;;;;23.55;30.06;102715.31;21082498;28;20380;-68
